createdAt,value
2023-09-25T00:00:53.043Z,148.00
2023-09-25T00:03:32.352Z,151.35
2023-09-25T00:06:08.040Z,146.68
2023-09-25T00:08:46.867Z,146.02
2023-09-25T00:11:23.539Z,145.65
2023-09-25T00:14:04.847Z,150.07
2023-09-25T00:16:50.799Z,154.45
2023-09-25T00:19:30.985Z,150.68
2023-09-25T00:22:09.078Z,153.30
2023-09-25T00:24:44.181Z,156.98
2023-09-25T00:27:20.293Z,153.80
2023-09-25T00:29:57.324Z,149.02
2023-09-25T00:32:35.136Z,152.82
2023-09-25T00:35:16.232Z,154.10
2023-09-25T00:37:51.971Z,152.27
2023-09-25T00:40:28.236Z,150.23
2023-09-25T00:43:06.747Z,149.52
2023-09-25T00:45:47.752Z,153.18
2023-09-25T00:48:33.265Z,156.27
2023-09-25T00:51:13.543Z,156.02
2023-09-25T00:53:50.269Z,154.95
2023-09-25T00:56:26.795Z,159.35
2023-09-25T00:59:04.122Z,152.10
2023-09-25T01:01:44.431Z,154.80
2023-09-25T01:04:21.277Z,149.68
2023-09-25T01:07:02.398Z,150.75
2023-09-25T01:09:43.031Z,150.38
2023-09-25T01:12:23.899Z,150.27
2023-09-25T01:15:06.338Z,146.23
2023-09-25T01:17:48.947Z,150.88
2023-09-25T01:20:25.765Z,149.13
2023-09-25T01:23:05.529Z,153.38
2023-09-25T01:25:41.585Z,152.82
2023-09-25T01:28:19.142Z,152.23
2023-09-25T01:30:58.583Z,156.35
2023-09-25T01:33:35.881Z,150.70
2023-09-25T01:36:15.338Z,156.88
2023-09-25T01:38:54.170Z,153.57
2023-09-25T01:41:31.099Z,151.32
2023-09-25T01:44:20.511Z,153.82
2023-09-25T01:46:57.835Z,148.35
2023-09-25T01:49:34.198Z,151.35
2023-09-25T01:52:10.501Z,151.75
2023-09-25T01:54:50.058Z,152.25
2023-09-25T01:57:26.072Z,154.07
2023-09-25T02:00:03.965Z,155.20
2023-09-25T02:02:40.609Z,150.82
2023-09-25T02:05:17.629Z,151.25
2023-09-25T02:07:55.199Z,155.80
2023-09-25T02:10:35.896Z,148.68
2023-09-25T02:13:15.402Z,151.57
2023-09-25T02:15:51.019Z,150.50
2023-09-25T02:18:29.387Z,152.82
2023-09-25T02:21:05.453Z,153.77
2023-09-25T02:23:42.403Z,154.77
2023-09-25T02:26:32.798Z,153.88
2023-09-25T02:29:08.425Z,156.85
2023-09-25T02:31:45.832Z,151.38
2023-09-25T02:34:24.975Z,148.45
2023-09-25T02:37:00.389Z,145.05
2023-09-25T02:39:36.222Z,142.68
2023-09-25T02:42:16.350Z,145.25
2023-09-25T02:44:55.700Z,152.60
2023-09-25T02:47:32.907Z,146.38
2023-09-25T02:50:21.227Z,156.48
2023-09-25T02:52:57.049Z,155.10
2023-09-25T02:55:36.192Z,155.40
2023-09-25T02:58:17.774Z,157.23
2023-09-25T03:00:53.512Z,150.57
2023-09-25T03:03:39.161Z,155.95
2023-09-25T03:06:15.289Z,158.40
2023-09-25T03:08:54.106Z,153.73
2023-09-25T03:11:30.602Z,147.57
2023-09-25T03:14:09.359Z,158.18
2023-09-25T03:16:47.882Z,154.48
2023-09-25T03:19:24.235Z,161.65
2023-09-25T03:22:00.286Z,161.55
2023-09-25T03:24:38.096Z,155.82
2023-09-25T03:27:17.160Z,154.63
2023-09-25T03:30:06.063Z,138.65
2023-09-25T03:32:42.944Z,147.10
2023-09-25T03:35:19.089Z,157.43
2023-09-25T03:38:03.144Z,161.02
2023-09-25T03:40:42.001Z,160.98
2023-09-25T03:43:19.077Z,158.30
2023-09-25T03:45:58.013Z,165.65
2023-09-25T03:48:37.550Z,161.50
2023-09-25T03:51:18.282Z,162.55
2023-09-25T03:53:55.281Z,165.10
2023-09-25T03:56:33.348Z,159.18
2023-09-25T03:59:10.969Z,159.27
2023-09-25T04:02:07.289Z,159.52
2023-09-25T04:04:57.535Z,153.48
2023-09-25T04:07:45.844Z,156.93
2023-09-25T04:10:21.814Z,166.88
2023-09-25T04:12:59.973Z,170.70
2023-09-25T04:15:36.648Z,169.85
2023-09-25T04:18:16.076Z,168.32
2023-09-25T04:20:55.992Z,168.48
2023-09-25T04:23:31.953Z,166.30
2023-09-25T04:26:07.530Z,175.25
2023-09-25T04:28:43.671Z,173.88
2023-09-25T04:31:22.812Z,168.70
2023-09-25T04:36:54.447Z,167.00
2023-09-25T04:39:34.965Z,170.70
2023-09-25T04:42:12.884Z,174.95
2023-09-25T04:45:03.091Z,177.88
2023-09-25T04:47:39.567Z,177.40
2023-09-25T04:50:31.344Z,179.52
2023-09-25T04:53:09.120Z,184.48
2023-09-25T04:55:52.081Z,183.98
2023-09-25T04:58:30.684Z,182.80
2023-09-25T05:01:06.839Z,197.35
2023-09-25T05:03:52.074Z,198.25
2023-09-25T05:06:36.607Z,202.50
2023-09-25T05:11:56.661Z,198.52
2023-09-25T05:14:35.813Z,190.05
2023-09-25T05:17:12.578Z,201.95
2023-09-25T05:19:54.982Z,199.43
2023-09-25T05:22:47.744Z,194.57
2023-09-25T05:25:25.715Z,191.20
2023-09-25T05:28:05.688Z,198.25
2023-09-25T05:30:41.564Z,190.70
2023-09-25T05:33:19.205Z,197.70
2023-09-25T05:35:57.782Z,195.68
2023-09-25T05:39:06.231Z,200.48
2023-09-25T05:42:04.276Z,196.38
2023-09-25T05:45:00.210Z,195.75
2023-09-25T05:47:37.557Z,195.85
2023-09-25T05:50:36.983Z,195.50
2023-09-25T05:53:21.309Z,196.43
2023-09-25T05:58:41.049Z,203.35
2023-09-25T06:01:22.492Z,203.40
2023-09-25T06:04:02.453Z,206.38
2023-09-25T06:06:42.812Z,201.77
2023-09-25T06:09:19.414Z,212.32
2023-09-25T06:11:59.187Z,210.90
2023-09-25T06:14:38.231Z,204.75
2023-09-25T06:17:14.449Z,209.80
2023-09-25T06:19:51.741Z,213.15
2023-09-25T06:22:35.450Z,217.40
2023-09-25T06:25:14.552Z,206.80
2023-09-25T06:28:17.868Z,208.90
2023-09-25T06:31:26.059Z,213.55
2023-09-25T06:36:43.458Z,216.52
2023-09-25T06:39:18.917Z,212.93
2023-09-25T06:41:54.992Z,213.85
2023-09-25T06:44:34.022Z,225.52
2023-09-25T06:47:11.779Z,218.70
2023-09-25T06:49:48.138Z,218.38
2023-09-25T06:52:30.846Z,210.70
2023-09-25T06:55:13.157Z,207.10
2023-09-25T06:58:06.632Z,209.82
2023-09-25T07:00:57.434Z,207.95
2023-09-25T07:03:37.393Z,204.98
2023-09-25T07:06:15.905Z,202.30
2023-09-25T07:08:52.598Z,205.95
2023-09-25T07:11:32.557Z,202.32
2023-09-25T07:14:09.436Z,208.02
2023-09-25T07:16:51.026Z,216.63
2023-09-25T07:19:56.709Z,220.68
2023-09-25T07:22:40.365Z,214.95
2023-09-25T07:25:18.879Z,215.68
2023-09-25T07:27:55.631Z,210.48
2023-09-25T07:30:46.472Z,211.48
2023-09-25T07:33:26.198Z,213.25
2023-09-25T07:39:01.966Z,200.40
2023-09-25T07:41:37.759Z,208.05
2023-09-25T07:44:36.436Z,209.75
2023-09-25T07:47:15.563Z,209.23
2023-09-25T07:49:55.270Z,208.23
2023-09-25T07:52:35.694Z,204.05
2023-09-25T07:55:15.962Z,197.40
2023-09-25T07:57:53.413Z,203.20
2023-09-25T08:00:39.890Z,203.07
2023-09-25T08:03:18.677Z,200.77
2023-09-25T08:06:15.592Z,201.15
2023-09-25T08:08:51.162Z,201.23
2023-09-25T08:11:27.679Z,203.20
2023-09-25T08:14:03.292Z,203.98
2023-09-25T08:16:42.020Z,194.43
2023-09-25T08:19:31.466Z,195.35
2023-09-25T08:22:13.570Z,197.75
2023-09-25T08:24:49.888Z,199.63
2023-09-25T08:27:26.657Z,198.77
2023-09-25T08:30:05.491Z,201.82
2023-09-25T08:32:46.221Z,200.13
2023-09-25T08:35:25.327Z,196.60
2023-09-25T08:38:10.089Z,194.02
2023-09-25T08:40:55.203Z,201.93
2023-09-25T08:43:39.173Z,200.45
2023-09-25T08:46:15.390Z,198.38
2023-09-25T08:48:59.948Z,199.18
2023-09-25T08:54:17.920Z,189.73
2023-09-25T08:56:58.852Z,190.50
2023-09-25T08:59:37.021Z,190.82
2023-09-25T09:02:16.082Z,198.60
2023-09-25T09:04:51.934Z,184.45
2023-09-25T09:07:27.539Z,192.07
2023-09-25T09:10:12.147Z,196.15
2023-09-25T09:13:03.389Z,193.65
2023-09-25T09:15:48.130Z,201.57
2023-09-25T09:18:36.418Z,194.23
2023-09-25T09:21:17.450Z,201.50
2023-09-25T09:23:56.486Z,202.32
2023-09-25T09:26:35.348Z,199.32
2023-09-25T09:29:22.629Z,194.02
2023-09-25T09:32:02.719Z,204.25
2023-09-25T09:34:48.565Z,184.55
2023-09-25T09:37:27.315Z,180.85
2023-09-25T09:40:04.343Z,197.05
2023-09-25T09:42:46.197Z,200.77
2023-09-25T09:45:22.139Z,192.85
2023-09-25T09:47:59.673Z,192.13
2023-09-25T09:50:54.582Z,190.35
2023-09-25T09:53:31.299Z,189.65
2023-09-25T09:56:07.610Z,196.40
2023-09-25T09:58:47.756Z,197.55
2023-09-25T10:01:24.100Z,197.65
2023-09-25T10:04:01.830Z,197.75
2023-09-25T10:06:50.092Z,198.60
2023-09-25T10:09:37.909Z,197.45
2023-09-25T10:12:14.590Z,192.50
2023-09-25T10:14:56.830Z,197.52
2023-09-25T10:17:46.338Z,199.32
2023-09-25T10:20:39.605Z,185.48
2023-09-25T10:26:23.469Z,194.55
2023-09-25T10:29:22.735Z,194.07
2023-09-25T10:32:08.128Z,195.63
2023-09-25T10:34:54.351Z,195.70
2023-09-25T10:37:36.753Z,190.82
2023-09-25T10:40:16.719Z,203.10
2023-09-25T10:42:52.103Z,198.15
2023-09-25T10:45:30.809Z,207.98
2023-09-25T10:48:09.660Z,205.57
2023-09-25T10:50:47.121Z,206.20
2023-09-25T10:53:24.502Z,193.73
2023-09-25T10:56:11.585Z,208.68
2023-09-25T10:58:52.301Z,206.30
2023-09-25T11:01:45.499Z,209.27
2023-09-25T11:04:26.003Z,210.95
2023-09-25T11:07:03.891Z,211.00
2023-09-25T11:10:15.222Z,207.02
2023-09-25T11:12:51.698Z,200.00
2023-09-25T11:18:18.412Z,210.02
2023-09-25T11:23:50.548Z,202.88
2023-09-25T11:26:32.859Z,212.15
2023-09-25T11:29:12.501Z,209.45
2023-09-25T11:32:02.721Z,205.10
2023-09-25T11:34:42.077Z,203.50
2023-09-25T11:37:33.354Z,203.60
2023-09-25T11:40:32.455Z,199.65
2023-09-25T11:43:07.974Z,202.23
2023-09-25T11:45:45.413Z,204.50
2023-09-25T11:48:21.672Z,203.10
2023-09-25T11:50:59.718Z,200.98
2023-09-25T11:53:46.113Z,203.75
2023-09-25T11:56:27.652Z,204.68
2023-09-25T11:59:04.228Z,202.57
2023-09-25T12:01:52.428Z,212.10
2023-09-25T12:04:40.727Z,209.38
2023-09-25T12:07:30.129Z,215.63
2023-09-25T12:10:09.568Z,214.93
2023-09-25T12:12:47.750Z,214.68
2023-09-25T12:15:33.026Z,211.70
2023-09-25T12:18:12.774Z,201.43
2023-09-25T12:21:20.394Z,210.27
2023-09-25T12:23:59.941Z,206.10
2023-09-25T12:26:40.092Z,200.57
2023-09-25T12:29:16.639Z,206.77
2023-09-25T12:31:51.870Z,204.55
2023-09-25T12:34:27.155Z,205.45
2023-09-25T12:37:02.377Z,206.98
2023-09-25T12:39:39.265Z,213.73
2023-09-25T12:42:22.092Z,212.07
2023-09-25T12:44:58.958Z,212.40
2023-09-25T12:47:43.434Z,211.60
2023-09-25T12:50:24.184Z,210.52
2023-09-25T12:53:05.085Z,214.10
2023-09-25T12:55:41.246Z,217.50
2023-09-25T12:58:20.910Z,210.15
2023-09-25T13:00:57.556Z,206.30
2023-09-25T13:03:39.999Z,201.00
2023-09-25T13:06:16.180Z,207.07
2023-09-25T13:11:48.656Z,201.30
2023-09-25T13:17:19.372Z,194.30
2023-09-25T13:19:58.752Z,199.73
2023-09-25T13:22:53.885Z,204.73
2023-09-25T13:25:54.015Z,203.02
2023-09-25T13:28:30.355Z,201.88
2023-09-25T13:31:35.829Z,205.65
2023-09-25T13:34:15.484Z,203.40
2023-09-25T13:36:52.181Z,211.20
2023-09-25T13:39:27.628Z,210.27
2023-09-25T13:42:09.706Z,204.82
2023-09-25T13:44:50.710Z,206.02
2023-09-25T13:47:36.377Z,212.90
2023-09-25T13:50:15.943Z,209.63
2023-09-25T13:52:53.974Z,216.27
2023-09-25T13:55:37.162Z,209.55
2023-09-25T13:58:39.011Z,210.23
2023-09-25T14:01:19.673Z,213.43
2023-09-25T14:04:45.038Z,211.93
2023-09-25T14:07:22.861Z,213.07
2023-09-25T14:12:54.027Z,219.25
2023-09-25T14:15:32.729Z,205.88
2023-09-25T14:18:10.276Z,220.55
2023-09-25T14:20:53.714Z,220.18
2023-09-25T14:23:29.830Z,216.23
2023-09-25T14:26:51.830Z,224.75
2023-09-25T14:29:30.150Z,226.98
2023-09-25T14:32:08.426Z,223.38
2023-09-25T14:34:44.624Z,230.70
2023-09-25T14:37:24.632Z,231.50
2023-09-25T14:40:02.398Z,228.60
2023-09-25T14:42:51.647Z,223.18
2023-09-25T14:45:27.983Z,205.43
2023-09-25T14:50:54.281Z,204.40
2023-09-25T14:53:38.870Z,213.48
2023-09-25T14:56:16.231Z,216.27
2023-09-25T14:58:55.860Z,209.98
2023-09-25T15:01:31.094Z,207.80
2023-09-25T15:04:06.097Z,214.40
2023-09-25T15:06:42.892Z,208.50
2023-09-25T15:09:24.335Z,207.00
2023-09-25T15:12:02.939Z,217.82
2023-09-25T15:14:42.824Z,228.32
2023-09-25T15:17:29.314Z,221.25
2023-09-25T15:20:11.684Z,220.73
2023-09-25T15:22:51.870Z,220.10
2023-09-25T15:25:38.933Z,212.20
2023-09-25T15:28:18.286Z,214.25
2023-09-25T15:33:48.614Z,218.05
2023-09-25T15:36:38.497Z,218.07
2023-09-25T15:39:25.535Z,216.43
2023-09-25T15:42:05.773Z,211.45
2023-09-25T15:44:56.752Z,215.60
2023-09-25T15:47:36.009Z,213.73
2023-09-25T15:50:12.489Z,211.32
2023-09-25T15:53:05.050Z,205.80
2023-09-25T15:55:40.364Z,209.98
2023-09-25T15:58:22.056Z,209.52
2023-09-25T16:01:01.716Z,201.30
2023-09-25T16:03:43.253Z,198.70
2023-09-25T16:06:41.049Z,193.60
2023-09-25T16:09:37.475Z,197.35
2023-09-25T16:12:13.168Z,195.43
2023-09-25T16:15:05.560Z,197.73
2023-09-25T16:17:45.456Z,196.15
2023-09-25T16:20:20.804Z,198.25
2023-09-25T16:22:57.004Z,200.55
2023-09-25T16:25:51.596Z,184.27
2023-09-25T16:28:45.102Z,192.32
2023-09-25T16:31:25.204Z,192.75
2023-09-25T16:34:24.746Z,197.32
2023-09-25T16:37:24.143Z,197.23
2023-09-25T16:43:00.808Z,191.00
2023-09-25T16:45:53.090Z,194.25
2023-09-25T16:48:34.503Z,206.85
2023-09-25T16:51:10.616Z,208.57
2023-09-25T16:53:51.375Z,202.68
2023-09-25T16:56:27.954Z,204.65
2023-09-25T16:59:03.694Z,208.75
2023-09-25T17:01:41.111Z,206.70
2023-09-25T17:04:22.544Z,214.15
2023-09-25T17:06:58.952Z,202.90
2023-09-25T17:09:34.737Z,207.27
2023-09-25T17:12:12.790Z,213.15
2023-09-25T17:14:48.758Z,211.00
2023-09-25T17:17:28.923Z,212.35
2023-09-25T17:20:08.063Z,213.88
2023-09-25T17:23:03.883Z,211.45
2023-09-25T17:25:39.026Z,204.18
2023-09-25T17:28:21.444Z,212.30
2023-09-25T17:31:08.666Z,199.75
2023-09-25T17:33:44.872Z,200.45
2023-09-25T17:36:24.469Z,205.38
2023-09-25T17:39:01.392Z,214.18
2023-09-25T17:41:37.417Z,210.68
2023-09-25T17:44:13.535Z,213.23
2023-09-25T17:46:52.082Z,205.77
2023-09-25T17:49:27.553Z,218.55
2023-09-25T17:52:21.666Z,217.48
2023-09-25T17:54:58.925Z,215.80
2023-09-25T17:57:34.970Z,220.00
2023-09-25T18:00:15.172Z,212.68
2023-09-25T18:02:51.705Z,222.75
2023-09-25T18:05:38.438Z,222.80
2023-09-25T18:08:19.472Z,230.50
2023-09-25T18:11:06.555Z,231.15
2023-09-25T18:13:43.569Z,238.50
2023-09-25T18:16:23.294Z,236.05
2023-09-25T18:19:08.377Z,242.32
2023-09-25T18:21:45.399Z,232.98
2023-09-25T18:24:25.657Z,230.18
2023-09-25T18:27:01.734Z,233.18
2023-09-25T18:29:38.260Z,239.52
2023-09-25T18:32:15.894Z,235.90
2023-09-25T18:34:52.524Z,238.63
2023-09-25T18:37:28.417Z,232.10
2023-09-25T18:40:11.191Z,231.63
2023-09-25T18:42:47.826Z,229.13
2023-09-25T18:45:23.792Z,225.35
2023-09-25T18:47:58.976Z,234.30
2023-09-25T18:50:34.980Z,227.20
2023-09-25T18:53:11.704Z,226.10
2023-09-25T18:55:56.798Z,229.50
2023-09-25T18:58:31.757Z,231.07
2023-09-25T19:01:07.236Z,227.30
2023-09-25T19:03:43.428Z,236.27
2023-09-25T19:06:25.902Z,226.70
2023-09-25T19:09:01.916Z,236.65
2023-09-25T19:11:41.985Z,236.45
2023-09-25T19:14:19.722Z,237.50
2023-09-25T19:16:55.769Z,236.93
2023-09-25T19:19:32.800Z,214.60
2023-09-25T19:22:08.900Z,235.57
2023-09-25T19:24:44.438Z,240.57
2023-09-25T19:27:24.606Z,240.57
2023-09-25T19:30:00.575Z,232.20
2023-09-25T19:32:36.520Z,239.90
2023-09-25T19:35:14.613Z,241.82
2023-09-25T19:37:50.205Z,241.85
2023-09-25T19:40:26.370Z,241.30
2023-09-25T19:43:06.772Z,236.15
2023-09-25T19:45:42.728Z,244.00
2023-09-25T19:48:18.857Z,244.90
2023-09-25T19:50:55.168Z,242.52
2023-09-25T19:53:31.403Z,241.02
2023-09-25T19:56:08.031Z,244.38
2023-09-25T19:58:46.306Z,238.45
2023-09-25T20:01:22.789Z,241.15
2023-09-25T20:03:59.243Z,240.98
2023-09-25T20:06:34.966Z,229.23
2023-09-25T20:09:12.039Z,224.77
2023-09-25T20:11:54.242Z,228.05
2023-09-25T20:14:33.058Z,219.05
2023-09-25T20:17:14.466Z,226.75
2023-09-25T20:19:53.757Z,238.43
2023-09-25T20:22:29.838Z,235.70
2023-09-25T20:25:06.232Z,231.27
2023-09-25T20:27:44.277Z,223.35
2023-09-25T20:30:26.646Z,229.10
2023-09-25T20:33:02.062Z,223.88
2023-09-25T20:35:37.962Z,215.43
2023-09-25T20:38:13.698Z,214.70
2023-09-25T20:40:49.051Z,214.07
2023-09-25T20:43:26.797Z,218.77
2023-09-25T20:46:06.374Z,220.60
2023-09-25T20:48:42.786Z,217.38
2023-09-25T20:51:18.349Z,206.73
2023-09-25T20:53:54.325Z,205.65
2023-09-25T20:56:30.155Z,202.48
2023-09-25T20:59:06.602Z,209.80
2023-09-25T21:01:44.903Z,209.88
2023-09-25T21:04:20.592Z,211.20
2023-09-25T21:07:00.023Z,209.25
2023-09-25T21:09:37.389Z,209.10
2023-09-25T21:12:14.256Z,200.85
2023-09-25T21:14:50.017Z,203.52
2023-09-25T21:17:30.200Z,196.18
2023-09-25T21:20:05.951Z,198.52
2023-09-25T21:22:43.256Z,193.75
2023-09-25T21:25:19.501Z,201.43
2023-09-25T21:27:55.696Z,192.10
2023-09-25T21:30:34.813Z,199.68
2023-09-25T21:33:15.153Z,189.10
2023-09-25T21:35:52.272Z,203.65
2023-09-25T21:38:27.593Z,206.15
2023-09-25T21:41:03.109Z,202.48
2023-09-25T21:43:39.346Z,200.88
2023-09-25T21:46:15.933Z,202.55
2023-09-25T21:48:55.201Z,192.77
2023-09-25T21:51:31.566Z,194.88
2023-09-25T21:54:10.117Z,195.25
2023-09-25T21:56:45.633Z,199.77
2023-09-25T21:59:33.562Z,194.65
2023-09-25T22:02:19.404Z,197.68
2023-09-25T22:04:59.051Z,192.68
2023-09-25T22:07:34.256Z,183.60
2023-09-25T22:10:13.637Z,173.07
2023-09-25T22:12:49.528Z,182.57
2023-09-25T22:15:25.455Z,183.45
2023-09-25T22:18:01.651Z,181.43
2023-09-25T22:20:44.063Z,184.00
2023-09-25T22:23:19.821Z,181.70
2023-09-25T22:25:56.142Z,173.75
2023-09-25T22:28:32.592Z,168.88
2023-09-25T22:31:13.100Z,163.25
2023-09-25T22:33:58.880Z,175.75
2023-09-25T22:36:41.325Z,172.73
2023-09-25T22:39:18.248Z,174.32
2023-09-25T22:41:54.628Z,172.43
2023-09-25T22:44:38.488Z,178.52
2023-09-25T22:47:14.348Z,171.05
2023-09-25T22:49:58.349Z,174.90
2023-09-25T22:52:37.571Z,170.20
2023-09-25T22:55:15.369Z,173.65
2023-09-25T22:57:55.711Z,170.77
2023-09-25T23:00:33.197Z,181.98
2023-09-25T23:03:10.667Z,180.10
2023-09-25T23:05:58.181Z,185.70
2023-09-25T23:08:37.972Z,185.70
2023-09-25T23:11:14.125Z,188.02
2023-09-25T23:14:03.903Z,182.65
2023-09-25T23:16:42.516Z,184.23
2023-09-25T23:19:19.819Z,184.45
2023-09-25T23:22:02.180Z,185.05
2023-09-25T23:24:43.086Z,188.10
2023-09-25T23:27:19.750Z,182.82
2023-09-25T23:29:56.634Z,191.38
2023-09-25T23:35:23.127Z,194.65
2023-09-25T23:38:00.789Z,192.00
2023-09-25T23:40:43.451Z,193.95
2023-09-25T23:43:20.593Z,195.95
2023-09-25T23:46:02.829Z,190.93
2023-09-25T23:48:40.281Z,193.32
2023-09-25T23:54:08.483Z,196.27
2023-09-25T23:56:55.825Z,190.40
2023-09-25T23:59:34.024Z,190.63
